TimeMST,TemperatureF,Dew PointF,Humidity,Sea Level PressureIn,VisibilityMPH,Wind Direction,Wind SpeedMPH,Gust SpeedMPH,PrecipitationIn,Events,Conditions,WindDirDegrees,DateUTC
12:51 AM,44.1,37.9,79,30.11,10.0,Calm,Calm,-,N/A,,Clear,0,2013-12-01 07:51:00
1:51 AM,46.0,37.0,71,30.09,10.0,NNW,5.8,-,N/A,,Clear,340,2013-12-01 08:51:00
2:51 AM,44.1,37.9,79,30.08,10.0,North,4.6,-,N/A,,Clear,350,2013-12-01 09:51:00
3:51 AM,43.0,37.9,82,30.08,10.0,SSW,3.5,-,N/A,,Clear,210,2013-12-01 10:51:00
4:51 AM,43.0,37.0,80,30.08,10.0,Calm,Calm,-,N/A,,Clear,0,2013-12-01 11:51:00
5:51 AM,43.0,37.9,82,30.09,10.0,North,4.6,-,N/A,,Clear,350,2013-12-01 12:51:00
6:51 AM,44.1,37.9,79,30.12,10.0,WNW,5.8,-,N/A,,Clear,300,2013-12-01 13:51:00
7:51 AM,45.0,37.9,76,30.14,10.0,WSW,5.8,-,N/A,,Clear,250,2013-12-01 14:51:00
8:51 AM,46.9,39.0,74,30.14,10.0,Calm,Calm,-,N/A,,Clear,0,2013-12-01 15:51:00
9:51 AM,50.0,39.0,66,30.14,10.0,Calm,Calm,-,N/A,,Clear,0,2013-12-01 16:51:00
10:51 AM,57.0,37.0,47,30.11,10.0,Calm,Calm,-,N/A,,Clear,0,2013-12-01 17:51:00
11:51 AM,63.0,36.0,37,30.04,10.0,Calm,Calm,-,N/A,,Clear,0,2013-12-01 18:51:00
12:51 PM,68.0,30.0,24,29.99,10.0,West,3.5,-,N/A,,Clear,280,2013-12-01 19:51:00
1:51 PM,69.1,30.9,24,29.96,10.0,Calm,Calm,-,N/A,,Clear,0,2013-12-01 20:51:00
2:51 PM,68.0,34.0,28,29.98,10.0,SSE,5.8,-,N/A,,Clear,150,2013-12-01 21:51:00
3:51 PM,63.0,37.9,40,29.99,10.0,South,4.6,-,N/A,,Clear,180,2013-12-01 22:51:00
4:51 PM,61.0,33.1,35,30.00,10.0,West,8.1,-,N/A,,Clear,260,2013-12-01 23:51:00
5:51 PM,62.1,21.9,21,29.98,10.0,NW,16.1,-,N/A,,Clear,310,2013-12-02 00:51:00
6:51 PM,57.9,24.1,27,29.99,10.0,WNW,10.4,-,N/A,,Clear,300,2013-12-02 01:51:00
7:51 PM,50.0,26.1,39,30.01,10.0,West,6.9,-,N/A,,Clear,270,2013-12-02 02:51:00
8:51 PM,51.1,25.0,36,30.01,10.0,WNW,6.9,-,N/A,,Clear,290,2013-12-02 03:51:00
9:51 PM,45.0,27.0,49,29.99,10.0,SW,4.6,-,N/A,,Clear,230,2013-12-02 04:51:00
10:51 PM,42.1,28.0,58,29.98,10.0,East,9.2,-,N/A,,Clear,100,2013-12-02 05:51:00
11:51 PM,37.0,27.0,67,29.95,10.0,South,5.8,-,N/A,,Clear,190,2013-12-02 06:51:00